createdAt,value
2023-02-17T00:01:36.769Z,4.46
2023-02-17T00:04:07.898Z,4.46
2023-02-17T00:06:39.459Z,4.47
2023-02-17T00:09:10.522Z,4.47
2023-02-17T00:11:41.761Z,4.49
2023-02-17T00:14:15.404Z,4.50
2023-02-17T00:16:47.384Z,4.51
2023-02-17T00:19:25.281Z,4.52
2023-02-17T00:21:59.978Z,4.54
2023-02-17T00:24:35.117Z,4.55
2023-02-17T00:27:05.409Z,4.55
2023-02-17T00:29:36.680Z,4.56
2023-02-17T00:32:10.601Z,4.56
2023-02-17T00:34:42.497Z,4.57
2023-02-17T00:37:13.626Z,4.58
2023-02-17T00:39:44.863Z,4.59
2023-02-17T00:42:15.801Z,4.61
2023-02-17T00:44:47.525Z,4.61
2023-02-17T00:47:18.514Z,4.60
2023-02-17T00:49:51.426Z,4.61
2023-02-17T00:52:23.124Z,4.62
2023-02-17T00:54:54.682Z,4.63
2023-02-17T00:57:26.423Z,4.65
2023-02-17T00:59:58.644Z,4.65
2023-02-17T01:02:30.789Z,4.67
2023-02-17T01:05:06.551Z,4.67
2023-02-17T01:07:37.728Z,4.66
2023-02-17T01:10:10.882Z,4.64
2023-02-17T01:12:42.797Z,4.64
2023-02-17T01:15:14.709Z,4.65
2023-02-17T01:17:46.746Z,4.68
2023-02-17T01:20:18.360Z,4.69
2023-02-17T01:22:49.505Z,4.69
2023-02-17T01:25:21.080Z,4.71
2023-02-17T01:27:52.944Z,4.73
2023-02-17T01:30:25.231Z,4.73
2023-02-17T01:32:56.484Z,4.74
2023-02-17T01:35:27.698Z,4.75
2023-02-17T01:37:58.736Z,4.76
2023-02-17T01:40:30.380Z,4.77
2023-02-17T01:43:02.060Z,4.78
2023-02-17T01:45:47.786Z,4.79
2023-02-17T01:48:22.556Z,4.79
2023-02-17T01:50:59.532Z,4.79
2023-02-17T01:53:36.764Z,4.80
2023-02-17T01:56:10.992Z,4.82
2023-02-17T01:58:46.169Z,4.83
2023-02-17T02:01:18.298Z,4.84
2023-02-17T02:03:50.513Z,4.85
2023-02-17T02:06:25.050Z,4.87
2023-02-17T02:09:00.723Z,4.88
2023-02-17T02:11:33.184Z,4.90
2023-02-17T02:14:06.928Z,4.91
2023-02-17T02:16:50.046Z,4.92
2023-02-17T02:19:38.838Z,4.93
2023-02-17T02:22:38.769Z,4.94
2023-02-17T02:25:25.403Z,4.94
2023-02-17T02:28:06.606Z,4.95
2023-02-17T02:30:53.736Z,4.96
2023-02-17T02:33:33.839Z,4.96
2023-02-17T02:36:12.584Z,4.97
2023-02-17T02:38:48.806Z,4.98
2023-02-17T02:41:24.249Z,4.97
2023-02-17T02:43:56.101Z,4.98
2023-02-17T02:46:27.302Z,4.98
2023-02-17T02:48:58.442Z,5.00
2023-02-17T02:51:40.659Z,5.01
2023-02-17T02:54:38.256Z,5.04
2023-02-17T02:57:31.976Z,5.07
2023-02-17T03:00:13.289Z,5.08
2023-02-17T03:02:52.464Z,5.09
2023-02-17T03:05:34.132Z,5.10
2023-02-17T03:08:09.890Z,5.12
2023-02-17T03:10:48.434Z,5.13
2023-02-17T03:13:20.586Z,5.14
2023-02-17T03:15:51.952Z,5.16
2023-02-17T03:18:22.958Z,5.18
2023-02-17T03:20:59.227Z,5.18
2023-02-17T03:23:30.237Z,5.19
2023-02-17T03:26:01.195Z,5.20
2023-02-17T03:28:33.229Z,5.21
2023-02-17T03:31:05.346Z,5.22
2023-02-17T03:33:36.575Z,5.22
2023-02-17T03:36:08.970Z,5.23
2023-02-17T03:38:40.060Z,5.24
2023-02-17T03:41:11.235Z,5.25
2023-02-17T03:43:42.275Z,5.25
2023-02-17T03:46:16.426Z,5.25
2023-02-17T03:48:47.726Z,5.25
2023-02-17T03:51:22.355Z,5.27
2023-02-17T03:53:53.760Z,5.26
2023-02-17T03:56:25.213Z,5.25
2023-02-17T03:58:56.296Z,5.23
2023-02-17T04:01:27.470Z,5.22
2023-02-17T04:03:58.536Z,5.22
2023-02-17T04:06:29.980Z,5.22
2023-02-17T04:09:00.905Z,5.23
2023-02-17T04:11:32.581Z,5.26
2023-02-17T04:14:03.696Z,5.27
2023-02-17T04:16:34.722Z,5.28
2023-02-17T04:19:06.375Z,5.30
2023-02-17T04:21:37.520Z,5.32
2023-02-17T04:24:08.966Z,5.35
2023-02-17T04:26:40.221Z,5.37
2023-02-17T04:29:11.203Z,5.37
2023-02-17T04:31:42.499Z,5.37
2023-02-17T04:34:13.582Z,5.36
2023-02-17T04:36:44.666Z,5.37
2023-02-17T04:39:15.729Z,5.36
2023-02-17T04:41:46.867Z,5.35
2023-02-17T04:44:17.953Z,5.35
2023-02-17T04:46:48.914Z,5.35
2023-02-17T04:49:19.852Z,5.36
2023-02-17T04:51:50.885Z,5.37
2023-02-17T04:54:23.437Z,5.38
2023-02-17T04:56:54.963Z,5.39
2023-02-17T04:59:26.031Z,5.40
2023-02-17T05:01:57.176Z,5.40
2023-02-17T05:04:28.968Z,5.40
2023-02-17T05:07:01.035Z,5.42
2023-02-17T05:09:32.258Z,5.41
2023-02-17T05:12:05.672Z,5.42
2023-02-17T05:14:41.189Z,5.43
2023-02-17T05:17:12.203Z,5.43
2023-02-17T05:19:43.171Z,5.41
2023-02-17T05:22:15.641Z,5.41
2023-02-17T05:24:46.574Z,5.42
2023-02-17T05:27:17.528Z,5.39
2023-02-17T05:29:56.576Z,5.40
2023-02-17T05:32:27.520Z,5.38
2023-02-17T05:34:58.460Z,5.36
2023-02-17T05:37:29.462Z,5.35
2023-02-17T05:40:00.492Z,5.34
2023-02-17T05:42:37.703Z,5.34
2023-02-17T05:45:09.580Z,5.34
2023-02-17T05:47:40.510Z,5.34
2023-02-17T05:50:14.433Z,5.35
2023-02-17T05:52:48.161Z,5.34
2023-02-17T05:55:24.451Z,5.34
2023-02-17T05:58:16.381Z,5.35
2023-02-17T06:00:48.119Z,5.33
2023-02-17T06:03:20.393Z,5.35
2023-02-17T06:05:53.938Z,5.34
2023-02-17T06:08:24.969Z,5.35
2023-02-17T06:11:18.978Z,5.37
2023-02-17T06:13:50.120Z,5.37
2023-02-17T06:16:23.433Z,5.37
2023-02-17T06:19:18.726Z,5.36
2023-02-17T06:21:49.698Z,5.37
2023-02-17T06:25:03.871Z,5.38
2023-02-17T06:27:35.276Z,5.40
2023-02-17T06:30:30.720Z,5.42
2023-02-17T06:33:05.753Z,5.43
2023-02-17T06:35:37.008Z,5.45
2023-02-17T06:38:30.305Z,5.47
2023-02-17T06:41:01.442Z,5.49
2023-02-17T06:43:32.567Z,5.49
2023-02-17T06:46:09.507Z,5.49
2023-02-17T06:48:43.742Z,5.49
2023-02-17T06:51:18.874Z,5.48
2023-02-17T06:53:55.434Z,5.48
2023-02-17T06:56:26.672Z,5.50
2023-02-17T06:58:57.996Z,5.55
2023-02-17T07:01:29.439Z,5.58
2023-02-17T07:04:01.231Z,5.62
2023-02-17T07:06:34.837Z,5.66
2023-02-17T07:09:56.226Z,5.70
2023-02-17T07:12:29.044Z,5.74
2023-02-17T07:15:22.126Z,5.79
2023-02-17T07:18:19.337Z,5.87
2023-02-17T07:20:50.477Z,5.95
2023-02-17T07:23:21.594Z,6.01
2023-02-17T07:25:55.178Z,6.08
2023-02-17T07:28:26.979Z,6.18
2023-02-17T07:30:58.346Z,6.30
2023-02-17T07:33:30.374Z,6.40
2023-02-17T07:36:05.808Z,6.47
2023-02-17T07:38:39.530Z,6.53
2023-02-17T07:41:24.843Z,6.58
2023-02-17T07:43:59.047Z,6.60
2023-02-17T07:46:31.189Z,6.61
2023-02-17T07:49:02.179Z,6.60
2023-02-17T07:51:36.912Z,6.59
2023-02-17T07:54:08.326Z,6.60
2023-02-17T07:56:39.435Z,6.60
2023-02-17T07:59:17.811Z,6.61
2023-02-17T08:01:51.929Z,6.64
2023-02-17T08:04:25.750Z,6.66
2023-02-17T08:06:57.103Z,6.68
2023-02-17T08:09:48.875Z,6.72
2023-02-17T08:12:39.189Z,6.78
2023-02-17T08:15:13.528Z,6.81
2023-02-17T08:17:58.499Z,6.84
2023-02-17T08:20:33.112Z,6.86
2023-02-17T08:23:12.900Z,6.87
2023-02-17T08:25:44.004Z,6.89
2023-02-17T08:28:18.207Z,6.90
2023-02-17T08:30:52.987Z,6.92
2023-02-17T08:33:24.231Z,6.94
2023-02-17T08:35:55.607Z,6.95
2023-02-17T08:38:27.308Z,6.95
2023-02-17T08:40:58.404Z,6.98
2023-02-17T08:43:40.531Z,6.99
2023-02-17T08:46:14.013Z,7.02
2023-02-17T08:48:46.005Z,7.05
2023-02-17T08:51:27.989Z,7.10
2023-02-17T08:54:13.162Z,7.16
2023-02-17T08:56:44.031Z,7.24
2023-02-17T08:59:15.711Z,7.32
2023-02-17T09:22:31.916Z,8.02
2023-02-17T09:25:00.978Z,8.01
2023-02-17T09:27:31.065Z,7.99
2023-02-17T09:30:04.496Z,7.94
2023-02-17T09:32:33.195Z,7.89
2023-02-17T09:38:46.236Z,7.79
2023-02-17T09:41:39.355Z,7.75
2023-02-17T09:44:17.472Z,7.72
2023-02-17T09:47:18.616Z,7.70
2023-02-17T09:49:52.245Z,7.68
2023-02-17T09:52:26.240Z,7.69
2023-02-17T09:55:03.600Z,7.65
2023-02-17T09:57:37.238Z,7.64
2023-02-17T10:00:49.297Z,7.62
2023-02-17T10:03:24.014Z,7.64
2023-02-17T10:05:56.922Z,7.64
2023-02-17T10:08:45.259Z,7.63
2023-02-17T10:11:42.926Z,7.60
2023-02-17T10:14:18.187Z,7.60
2023-02-17T10:16:51.859Z,7.58
2023-02-17T10:19:27.266Z,7.56
2023-02-17T10:22:03.332Z,7.55
2023-02-17T10:24:31.946Z,7.55
2023-02-17T10:27:22.369Z,7.54
2023-02-17T10:30:05.779Z,7.52
2023-02-17T10:32:56.869Z,7.49
2023-02-17T10:35:38.145Z,7.48
2023-02-17T10:38:15.490Z,7.46
2023-02-17T10:40:51.321Z,7.44
2023-02-17T10:43:26.560Z,7.44
2023-02-17T10:45:55.766Z,7.44
2023-02-17T10:48:32.576Z,7.44
2023-02-17T10:51:01.826Z,7.44
2023-02-17T10:53:34.576Z,7.47
2023-02-17T10:56:08.764Z,7.50
2023-02-17T10:58:42.956Z,7.54
2023-02-17T11:01:18.517Z,7.62
2023-02-17T11:03:47.236Z,7.71
2023-02-17T11:06:21.688Z,7.76
2023-02-17T11:08:56.054Z,7.80
2023-02-17T11:11:29.953Z,7.83
2023-02-17T11:14:13.454Z,7.87
2023-02-17T11:16:46.566Z,7.93
2023-02-17T11:19:25.096Z,7.96
2023-02-17T11:21:55.673Z,7.96
2023-02-17T11:24:25.405Z,7.95
2023-02-17T11:27:00.002Z,7.92
2023-02-17T11:29:30.065Z,7.88
2023-02-17T11:32:04.213Z,7.84
2023-02-17T11:34:36.026Z,7.80
2023-02-17T11:37:21.491Z,7.78
2023-02-17T11:39:52.837Z,7.76
2023-02-17T11:42:23.136Z,7.74
2023-02-17T11:45:17.489Z,7.71
2023-02-17T11:47:59.078Z,7.68
2023-02-17T11:50:41.740Z,7.65
2023-02-17T11:53:26.347Z,7.62
2023-02-17T11:56:13.860Z,7.62
2023-02-17T11:59:15.813Z,7.62
2023-02-17T12:02:02.009Z,7.61
2023-02-17T12:04:32.045Z,7.58
2023-02-17T12:07:29.720Z,7.55
2023-02-17T12:10:06.479Z,7.52
2023-02-17T12:12:51.428Z,7.52
2023-02-17T12:15:36.708Z,7.52
2023-02-17T12:18:40.416Z,7.51
2023-02-17T12:21:15.961Z,7.52
2023-02-17T12:24:05.777Z,7.54
2023-02-17T12:26:46.913Z,7.53
2023-02-17T12:29:30.643Z,7.54
2023-02-17T12:32:18.134Z,7.51
2023-02-17T12:34:54.683Z,7.49
2023-02-17T12:37:27.261Z,7.50
2023-02-17T12:40:02.371Z,7.51
2023-02-17T12:42:35.141Z,7.51
2023-02-17T12:45:08.385Z,7.52
2023-02-17T12:48:01.708Z,7.50
2023-02-17T12:50:37.431Z,7.51
2023-02-17T12:54:09.131Z,7.51
2023-02-17T12:57:11.659Z,7.54
2023-02-17T12:59:51.976Z,7.55
2023-02-17T13:02:22.662Z,7.53
2023-02-17T13:04:53.647Z,7.52
2023-02-17T13:07:33.289Z,7.52
2023-02-17T13:10:02.831Z,7.51
2023-02-17T13:12:35.711Z,7.50
2023-02-17T13:15:23.011Z,7.50
2023-02-17T13:18:00.797Z,7.49
2023-02-17T13:20:45.256Z,7.51
2023-02-17T13:23:26.962Z,7.52
2023-02-17T13:26:13.312Z,7.54
2023-02-17T13:28:42.759Z,7.54
2023-02-17T13:31:18.633Z,7.54
2023-02-17T13:33:52.480Z,7.54
2023-02-17T13:36:35.013Z,7.52
2023-02-17T13:39:08.516Z,7.54
2023-02-17T13:41:47.886Z,7.54
2023-02-17T13:44:28.441Z,7.54
2023-02-17T13:47:00.820Z,7.52
2023-02-17T13:49:34.522Z,7.52
2023-02-17T13:52:15.805Z,7.52
2023-02-17T13:54:53.463Z,7.52
2023-02-17T13:57:29.385Z,7.50
2023-02-17T14:00:21.688Z,7.46
2023-02-17T14:03:18.909Z,7.42
2023-02-17T14:05:51.825Z,7.42
2023-02-17T14:08:26.858Z,7.42
2023-02-17T14:10:56.450Z,7.41
2023-02-17T14:13:25.862Z,7.41
2023-02-17T14:16:06.997Z,7.41
2023-02-17T14:18:39.384Z,7.43
2023-02-17T14:21:26.999Z,7.45
2023-02-17T14:23:58.685Z,7.44
2023-02-17T14:26:35.700Z,7.43
2023-02-17T14:29:06.667Z,7.43
2023-02-17T14:31:40.069Z,7.43
2023-02-17T14:34:24.152Z,7.44
2023-02-17T14:36:52.446Z,7.44
2023-02-17T14:39:21.539Z,7.42
2023-02-17T14:41:50.364Z,7.41
2023-02-17T14:44:19.100Z,7.42
2023-02-17T14:46:47.660Z,7.44
2023-02-17T14:49:15.964Z,7.44
2023-02-17T14:51:44.313Z,7.43
2023-02-17T14:54:15.487Z,7.42
2023-02-17T14:56:48.307Z,7.41
2023-02-17T14:59:17.348Z,7.38
2023-02-17T15:01:47.936Z,7.37
2023-02-17T15:04:16.342Z,7.36
2023-02-17T15:06:47.478Z,7.35
2023-02-17T15:09:17.372Z,7.34
2023-02-17T15:11:48.337Z,7.34
2023-02-17T15:14:19.514Z,7.35
2023-02-17T15:16:48.970Z,7.35
2023-02-17T15:19:17.895Z,7.35
2023-02-17T15:21:49.068Z,7.35
2023-02-17T15:24:20.880Z,7.34
2023-02-17T15:26:49.235Z,7.34
2023-02-17T15:29:22.530Z,7.34
2023-02-17T15:31:53.708Z,7.34
2023-02-17T15:34:25.311Z,7.33
2023-02-17T15:36:53.919Z,7.34
2023-02-17T15:39:22.126Z,7.33
2023-02-17T15:41:52.309Z,7.33
2023-02-17T15:44:23.863Z,7.34
2023-02-17T15:46:55.537Z,7.33
2023-02-17T15:49:25.509Z,7.34
2023-02-17T15:51:53.830Z,7.34
2023-02-17T15:54:22.565Z,7.36
2023-02-17T15:56:53.533Z,7.36
2023-02-17T15:59:25.604Z,7.35
2023-02-17T16:01:55.445Z,7.35
2023-02-17T16:04:23.633Z,7.37
2023-02-17T16:06:52.726Z,7.37
2023-02-17T16:09:22.430Z,7.37
2023-02-17T16:11:53.453Z,7.37
2023-02-17T16:14:28.262Z,7.38
2023-02-17T16:16:56.534Z,7.39
2023-02-17T16:19:25.396Z,7.38
2023-02-17T16:21:53.682Z,7.38
2023-02-17T16:24:21.872Z,7.37
2023-02-17T16:26:50.297Z,7.37
2023-02-17T16:29:20.976Z,7.39
2023-02-17T16:31:50.307Z,7.38
2023-02-17T16:34:21.385Z,7.39
2023-02-17T16:36:50.694Z,7.39
2023-02-17T16:39:21.116Z,7.37
2023-02-17T16:41:49.893Z,7.36
2023-02-17T16:44:22.445Z,7.36
2023-02-17T16:46:52.619Z,7.38
2023-02-17T16:49:31.257Z,7.38
2023-02-17T16:52:00.365Z,7.38
2023-02-17T16:54:28.750Z,7.38
2023-02-17T16:56:58.227Z,7.38
2023-02-17T16:59:27.715Z,7.39
2023-02-17T17:01:56.303Z,7.39
2023-02-17T17:04:24.713Z,7.41
2023-02-17T17:06:53.397Z,7.41
2023-02-17T17:09:23.877Z,7.42
2023-02-17T17:11:52.116Z,7.43
2023-02-17T17:14:21.895Z,7.44
2023-02-17T17:16:55.315Z,7.45
2023-02-17T17:19:23.789Z,7.45
2023-02-17T17:21:52.195Z,7.45
2023-02-17T17:24:21.167Z,7.46
2023-02-17T17:26:51.074Z,7.46
2023-02-17T17:29:20.252Z,7.47
2023-02-17T17:31:49.035Z,7.49
2023-02-17T17:34:17.518Z,7.49
2023-02-17T17:36:47.272Z,7.50
2023-02-17T17:39:17.283Z,7.50
2023-02-17T17:41:46.131Z,7.50
2023-02-17T17:44:16.189Z,7.49
2023-02-17T17:46:44.837Z,7.49
2023-02-17T17:49:16.129Z,7.50
2023-02-17T17:51:45.547Z,7.49
2023-02-17T17:54:13.817Z,7.52
2023-02-17T17:56:43.270Z,7.53
2023-02-17T17:59:22.874Z,7.54
2023-02-17T18:01:51.396Z,7.54
2023-02-17T18:04:19.736Z,7.55
2023-02-17T18:06:51.198Z,7.56
2023-02-17T18:09:31.404Z,7.58
2023-02-17T18:12:07.216Z,7.58
2023-02-17T18:14:38.578Z,7.58
2023-02-17T18:17:08.865Z,7.59
2023-02-17T18:19:37.585Z,7.60
2023-02-17T18:22:06.347Z,7.60
2023-02-17T18:24:37.089Z,7.61
2023-02-17T18:27:10.470Z,7.62
2023-02-17T18:29:38.843Z,7.63
2023-02-17T18:32:07.197Z,7.64
2023-02-17T18:34:35.883Z,7.65
2023-02-17T18:37:04.503Z,7.67
2023-02-17T18:39:33.392Z,7.68
2023-02-17T18:42:09.862Z,7.69
2023-02-17T18:44:38.594Z,7.72
2023-02-17T18:47:06.856Z,7.74
2023-02-17T18:49:35.591Z,7.75
2023-02-17T18:52:04.140Z,7.76
2023-02-17T18:54:32.452Z,7.78
2023-02-17T18:57:17.603Z,7.79
2023-02-17T18:59:46.163Z,7.80
2023-02-17T19:02:15.262Z,7.81
2023-02-17T19:04:43.793Z,7.82
2023-02-17T19:07:12.233Z,7.82
2023-02-17T19:09:42.673Z,7.83
2023-02-17T19:12:13.234Z,7.83
2023-02-17T19:14:44.114Z,7.85
2023-02-17T19:17:13.006Z,7.88
2023-02-17T19:19:41.951Z,7.90
2023-02-17T19:22:10.803Z,7.92
2023-02-17T19:24:40.809Z,7.95
2023-02-17T19:27:09.858Z,7.96
2023-02-17T19:29:38.267Z,7.98
2023-02-17T19:32:28.216Z,8.01
2023-02-17T19:35:16.766Z,8.04
2023-02-17T19:38:02.997Z,8.06
2023-02-17T19:41:09.939Z,8.08
2023-02-17T19:44:00.315Z,8.12
2023-02-17T19:46:54.666Z,8.16
2023-02-17T19:49:47.113Z,8.21
2023-02-17T19:52:20.251Z,8.26
2023-02-17T19:55:11.388Z,8.29
2023-02-17T19:57:49.895Z,8.33
2023-02-17T20:00:44.296Z,8.37
2023-02-17T20:03:15.590Z,8.42
2023-02-17T20:05:46.316Z,8.47
2023-02-17T20:08:17.329Z,8.52
2023-02-17T20:10:47.689Z,8.56
2023-02-17T20:13:16.068Z,8.59
2023-02-17T20:15:44.691Z,8.64
2023-02-17T20:18:13.255Z,8.68
2023-02-17T20:20:45.410Z,8.71
2023-02-17T20:23:14.397Z,8.76
2023-02-17T20:25:42.584Z,8.79
2023-02-17T20:28:11.150Z,8.84
2023-02-17T20:31:09.003Z,8.88
2023-02-17T20:33:56.346Z,8.92
2023-02-17T20:36:33.456Z,8.95
2023-02-17T20:39:10.716Z,8.99
2023-02-17T20:41:48.090Z,9.03
2023-02-17T20:44:43.289Z,9.07
2023-02-17T20:47:49.439Z,9.11
2023-02-17T20:50:28.627Z,9.14
2023-02-17T20:53:25.512Z,9.16
2023-02-17T20:56:17.858Z,9.19
2023-02-17T20:58:59.268Z,9.20
2023-02-17T21:01:47.604Z,9.21
2023-02-17T21:04:22.470Z,9.23
2023-02-17T21:06:59.370Z,9.23
2023-02-17T21:10:00.356Z,9.24
2023-02-17T21:12:32.068Z,9.26
2023-02-17T21:15:12.923Z,9.26
2023-02-17T21:17:48.990Z,9.24
2023-02-17T21:20:39.149Z,9.24
2023-02-17T21:23:24.972Z,9.24
2023-02-17T21:26:13.274Z,9.26
2023-02-17T21:29:01.058Z,9.27
2023-02-17T21:31:36.757Z,9.28
2023-02-17T21:34:09.728Z,9.29
2023-02-17T21:36:46.383Z,9.30
2023-02-17T21:39:18.745Z,9.31
2023-02-17T21:41:48.811Z,9.33
2023-02-17T21:44:38.491Z,9.34
2023-02-17T21:47:07.528Z,9.35
2023-02-17T21:49:36.440Z,9.35
2023-02-17T21:52:05.485Z,9.36
2023-02-17T21:54:34.375Z,9.36
2023-02-17T21:57:04.416Z,9.38
2023-02-17T21:59:33.253Z,9.38
2023-02-17T22:02:01.476Z,9.38
2023-02-17T22:04:30.724Z,9.39
2023-02-17T22:06:59.496Z,9.38
2023-02-17T22:09:27.739Z,9.36
2023-02-17T22:11:56.075Z,9.34
2023-02-17T22:14:25.574Z,9.31
2023-02-17T22:16:54.373Z,9.29
2023-02-17T22:19:24.328Z,9.27
2023-02-17T22:21:53.867Z,9.23
2023-02-17T22:24:22.354Z,9.20
2023-02-17T22:26:50.839Z,9.16
2023-02-17T22:29:19.254Z,9.13
2023-02-17T22:31:49.818Z,9.09
2023-02-17T22:34:18.375Z,9.01
2023-02-17T22:36:49.558Z,8.94
2023-02-17T22:39:18.128Z,8.86
2023-02-17T22:41:46.495Z,8.80
2023-02-17T22:44:14.720Z,8.74
2023-02-17T22:46:43.071Z,8.68
2023-02-17T22:49:11.343Z,8.63
2023-02-17T22:51:40.311Z,8.58
2023-02-17T22:54:09.393Z,8.53
2023-02-17T22:56:38.048Z,8.50
2023-02-17T22:59:06.868Z,8.46
2023-02-17T23:01:36.713Z,8.42
2023-02-17T23:04:06.152Z,8.37
2023-02-17T23:06:39.518Z,8.32
2023-02-17T23:09:12.014Z,8.27
2023-02-17T23:11:50.695Z,8.22
2023-02-17T23:14:22.128Z,8.19
2023-02-17T23:16:50.625Z,8.15
2023-02-17T23:19:21.411Z,8.12
2023-02-17T23:21:52.860Z,8.08
2023-02-17T23:24:22.536Z,8.07
2023-02-17T23:26:52.083Z,8.05
2023-02-17T23:29:20.679Z,8.03
2023-02-17T23:31:49.449Z,8.00
2023-02-17T23:34:17.935Z,7.99
2023-02-17T23:36:46.968Z,7.97
2023-02-17T23:39:16.517Z,7.95
2023-02-17T23:41:45.384Z,7.93
2023-02-17T23:44:14.844Z,7.90
2023-02-17T23:46:44.740Z,7.87
2023-02-17T23:49:15.591Z,7.85
2023-02-17T23:51:46.279Z,7.84
2023-02-17T23:54:14.966Z,7.83
2023-02-17T23:56:43.684Z,7.84
2023-02-17T23:59:14.288Z,7.85
